Time;durP1;ratioP1;P1;durP2;ratioP2;P2;SDS_P1;SDS_P2;PMS_P1;PMS_P2;Temp;Humidity;BMP_temperature;BMP_pressure;BME280_temperature;BME280_humidity;BME280_pressure;Samples;Min_cycle;Max_cycle;Signal;HPM_P1;HPM_P2
2022/02/20 00:00:18;;;;;;;10.00;4.90;;;;;;;1.08;50.33;96598.18;106980;1268;1399046;-82
2022/02/20 00:03:09;;;;;;;11.80;4.60;;;;;;;1.11;50.47;96594.33;107020;1268;1512533;-82
2022/02/20 00:05:40;;;;;;;9.30;4.20;;;;;;;1.09;50.52;96595.99;108214;1268;34390;-82
2022/02/20 00:08:12;;;;;;;7.90;4.20;;;;;;;1.06;50.43;96600.98;108247;1268;32584;-82
2022/02/20 00:10:43;;;;;;;10.70;4.60;;;;;;;1.05;50.50;96597.83;108092;1268;119356;-82
2022/02/20 00:13:16;;;;;;;9.90;4.30;;;;;;;1.00;50.63;96596.02;108047;1268;143349;-82
2022/02/20 00:15:48;;;;;;;9.60;4.30;;;;;;;0.96;50.63;96595.58;104657;1268;2573936;-82
2022/02/20 00:18:19;;;;;;;12.40;5.00;;;;;;;0.96;50.73;96595.63;108100;1268;67994;-81
2022/02/20 00:20:51;;;;;;;9.60;3.80;;;;;;;0.97;50.59;96591.38;108144;1268;64157;-82
2022/02/20 00:23:22;;;;;;;7.50;4.30;;;;;;;1.02;50.65;96592.52;108168;1268;34815;-82
2022/02/20 00:25:54;;;;;;;7.50;3.70;;;;;;;1.05;50.72;96595.16;108009;1268;132756;-82
2022/02/20 00:28:25;;;;;;;5.10;2.50;;;;;;;1.03;50.57;96593.70;108180;1268;79219;-82
2022/02/20 00:30:56;;;;;;;9.30;3.80;;;;;;;1.04;50.58;96586.67;108158;1268;72869;-82
2022/02/20 00:33:28;;;;;;;9.00;4.30;;;;;;;1.06;50.57;96588.41;108158;1268;59473;-82
2022/02/20 00:35:59;;;;;;;7.20;2.90;;;;;;;1.11;50.47;96591.19;108185;1268;48399;-82
2022/02/20 00:38:30;;;;;;;7.10;3.00;;;;;;;1.14;50.47;96587.12;108120;1268;94059;-82
2022/02/20 00:41:02;;;;;;;10.30;4.00;;;;;;;1.19;50.34;96587.21;108154;1268;50584;-82
2022/02/20 00:43:33;;;;;;;8.20;3.70;;;;;;;1.18;50.38;96587.38;108118;1268;86612;-82
2022/02/20 00:46:04;;;;;;;9.50;3.40;;;;;;;1.13;50.60;96579.52;108043;1268;99219;-82
2022/02/20 00:48:36;;;;;;;9.00;2.50;;;;;;;1.10;50.54;96581.52;108172;1268;54032;-82
2022/02/20 00:51:07;;;;;;;9.10;3.60;;;;;;;1.09;50.65;96571.38;108144;1268;43208;-82
2022/02/20 00:53:38;;;;;;;6.20;2.80;;;;;;;1.10;50.93;96573.37;108099;1268;103004;-82
2022/02/20 00:56:09;;;;;;;8.90;2.70;;;;;;;1.07;50.74;96568.70;107997;1268;155058;-82
2022/02/20 00:58:40;;;;;;;9.90;3.80;;;;;;;1.07;50.86;96567.75;108000;1268;139794;-82
2022/02/20 01:01:11;;;;;;;4.80;2.50;;;;;;;1.05;50.87;96557.30;108115;1268;115704;-82
2022/02/20 01:03:43;;;;;;;8.20;3.10;;;;;;;1.05;50.80;96556.27;108223;1267;32216;-82
2022/02/20 01:06:14;;;;;;;6.40;2.40;;;;;;;1.07;50.84;96550.52;108063;1268;67893;-82
2022/02/20 01:08:45;;;;;;;8.50;3.50;;;;;;;1.07;50.83;96557.63;108248;1268;41704;-82
2022/02/20 01:11:16;;;;;;;7.20;3.40;;;;;;;1.04;51.00;96555.87;106633;1268;2002153;-81
2022/02/20 01:13:48;;;;;;;8.00;2.90;;;;;;;1.03;51.20;96554.84;108046;1268;133453;-82
2022/02/20 01:16:19;;;;;;;7.30;3.00;;;;;;;1.01;51.14;96552.30;108065;1268;115193;-82
2022/02/20 01:18:50;;;;;;;7.00;3.10;;;;;;;0.98;51.19;96548.81;108172;1268;52943;-82
2022/02/20 01:21:21;;;;;;;8.00;3.30;;;;;;;0.97;51.11;96545.42;106787;1268;1790845;-81
2022/02/20 01:23:52;;;;;;;8.50;3.00;;;;;;;0.93;51.43;96542.82;107939;1268;126315;-81
2022/02/20 01:26:23;;;;;;;8.40;3.60;;;;;;;0.87;51.20;96538.96;108128;1267;96258;-81
2022/02/20 01:28:54;;;;;;;7.40;3.60;;;;;;;0.82;51.14;96529.58;108093;1268;70741;-82
2022/02/20 01:31:26;;;;;;;8.00;3.30;;;;;;;0.78;51.43;96526.01;108095;1268;92407;-81
2022/02/20 01:33:58;;;;;;;7.30;2.70;;;;;;;0.65;51.66;96517.73;108167;1268;77298;-81
2022/02/20 01:36:29;;;;;;;8.90;3.80;;;;;;;0.52;51.95;96514.84;108098;1268;107108;-81
2022/02/20 01:39:00;;;;;;;7.60;2.60;;;;;;;0.38;52.33;96512.71;108167;1268;34766;-82
2022/02/20 01:41:31;;;;;;;9.00;3.60;;;;;;;0.30;52.87;96514.91;107987;1268;98811;-81
2022/02/20 01:44:03;;;;;;;6.80;2.90;;;;;;;0.20;52.99;96516.09;108077;1268;132105;-82
2022/02/20 01:46:34;;;;;;;6.50;2.80;;;;;;;0.14;53.03;96515.94;108119;1268;40652;-81
2022/02/20 01:49:05;;;;;;;8.70;3.30;;;;;;;0.18;53.03;96510.73;108094;1268;154240;-82
2022/02/20 01:51:37;;;;;;;6.00;2.90;;;;;;;0.22;53.16;96510.81;107964;1268;127233;-82
2022/02/20 01:54:08;;;;;;;9.70;3.80;;;;;;;0.21;53.09;96508.54;107992;1268;121752;-81
2022/02/20 01:56:40;;;;;;;6.70;3.10;;;;;;;0.27;53.24;96509.92;108066;1268;113416;-82
2022/02/20 01:59:11;;;;;;;6.90;2.90;;;;;;;0.32;53.19;96502.58;108186;1268;34624;-82
2022/02/20 02:01:44;;;;;;;5.80;2.70;;;;;;;0.38;53.00;96496.95;108087;1268;101321;-81
2022/02/20 02:04:15;;;;;;;10.10;3.20;;;;;;;0.36;53.06;96494.35;106879;1268;1523713;-81
2022/02/20 02:06:46;;;;;;;7.80;3.40;;;;;;;0.36;52.96;96491.30;108006;1268;111710;-81
2022/02/20 02:09:18;;;;;;;5.90;3.10;;;;;;;0.38;53.07;96491.00;108120;1267;60978;-81
2022/02/20 02:11:52;;;;;;;8.30;3.20;;;;;;;0.42;52.86;96487.64;108129;1267;60971;-81
2022/02/20 02:14:23;;;;;;;7.00;3.00;;;;;;;0.43;53.02;96485.59;108107;1268;76092;-81
2022/02/20 02:16:56;;;;;;;7.90;3.10;;;;;;;0.40;52.94;96480.05;108160;1268;31890;-82
2022/02/20 02:19:27;;;;;;;6.00;3.00;;;;;;;0.38;52.61;96474.95;108091;1268;34909;-81
2022/02/20 02:22:01;;;;;;;7.60;3.50;;;;;;;0.34;52.95;96470.63;107987;1268;129686;-81
2022/02/20 02:24:33;;;;;;;6.50;3.00;;;;;;;0.29;53.00;96467.03;108041;1268;78629;-82
2022/02/20 02:27:05;;;;;;;6.10;2.90;;;;;;;0.22;53.04;96463.96;108001;1267;84631;-81
2022/02/20 02:29:36;;;;;;;7.20;3.20;;;;;;;0.09;53.27;96457.33;108143;1268;30889;-81
2022/02/20 02:32:08;;;;;;;9.30;3.50;;;;;;;-0.06;53.87;96452.02;108074;1268;109526;-81
2022/02/20 02:34:42;;;;;;;6.60;3.00;;;;;;;-0.17;54.06;96446.63;108058;1268;114624;-81
2022/02/20 02:37:14;;;;;;;7.60;3.10;;;;;;;-0.27;54.06;96445.95;107896;1268;33511;-81
2022/02/20 02:39:47;;;;;;;5.70;3.00;;;;;;;-0.36;54.32;96450.42;108197;1268;30328;-81
2022/02/20 02:42:21;;;;;;;5.60;3.00;;;;;;;-0.45;54.57;96447.23;108122;1268;81090;-81
2022/02/20 02:44:52;;;;;;;9.30;3.70;;;;;;;-0.50;54.80;96446.22;108163;1268;32698;-81
2022/02/20 02:47:23;;;;;;;10.60;3.60;;;;;;;-0.51;54.68;96447.06;108080;1268;121995;-82
2022/02/20 02:49:55;;;;;;;6.60;3.00;;;;;;;-0.56;54.77;96444.45;108078;1268;57424;-81
2022/02/20 02:52:26;;;;;;;6.90;3.00;;;;;;;-0.60;55.08;96442.99;108109;1268;50096;-81
2022/02/20 02:54:59;;;;;;;6.10;2.50;;;;;;;-0.62;55.00;96444.17;108093;1268;85254;-81
2022/02/20 02:57:31;;;;;;;6.80;3.00;;;;;;;-0.63;55.16;96444.34;108141;1268;30456;-82
2022/02/20 03:00:04;;;;;;;6.70;3.20;;;;;;;-0.64;55.28;96440.63;107747;1268;94561;-81
2022/02/20 03:02:35;;;;;;;8.80;3.30;;;;;;;-0.66;55.44;96436.96;108129;1268;35004;-81
2022/02/20 03:05:06;;;;;;;7.50;2.90;;;;;;;-0.68;55.42;96434.58;108198;1268;28149;-81
2022/02/20 03:07:38;;;;;;;6.70;2.10;;;;;;;-0.63;55.03;96429.00;108140;1268;30779;-81
2022/02/20 03:10:09;;;;;;;7.20;3.10;;;;;;;-0.61;55.55;96426.42;107804;1268;30160;-81
2022/02/20 03:12:41;;;;;;;8.40;2.80;;;;;;;-0.62;55.37;96415.90;108134;1268;64721;-81
2022/02/20 03:15:13;;;;;;;7.70;2.60;;;;;;;-0.60;55.82;96406.23;106792;1268;1893710;-81
2022/02/20 03:17:44;;;;;;;5.80;2.40;;;;;;;-0.49;55.66;96397.36;108205;1268;33984;-82
2022/02/20 03:20:15;;;;;;;5.30;2.50;;;;;;;-0.37;55.53;96387.85;108188;1268;30480;-82
2022/02/20 03:22:46;;;;;;;8.50;2.70;;;;;;;-0.26;55.37;96380.38;108102;1268;34263;-80
2022/02/20 03:25:17;;;;;;;8.60;2.90;;;;;;;-0.20;55.08;96377.70;108138;1268;31734;-81
2022/02/20 03:27:48;;;;;;;8.10;3.00;;;;;;;-0.13;55.12;96374.80;108102;1265;72025;-81
2022/02/20 03:30:19;;;;;;;6.90;2.80;;;;;;;-0.08;55.10;96373.91;107964;1268;44136;-82
2022/02/20 03:32:51;;;;;;;4.90;2.50;;;;;;;-0.00;54.89;96369.89;108176;1268;61989;-81
2022/02/20 03:35:23;;;;;;;7.00;3.10;;;;;;;0.12;54.69;96361.27;108133;1268;36575;-81
2022/02/20 03:37:54;;;;;;;4.70;2.20;;;;;;;0.26;54.36;96360.01;108160;1268;32725;-81
2022/02/20 03:40:25;;;;;;;6.30;2.70;;;;;;;0.41;54.19;96351.11;108123;1268;97273;-81
2022/02/20 03:42:56;;;;;;;4.90;1.90;;;;;;;0.49;53.72;96346.80;108096;1268;30993;-81
2022/02/20 03:45:28;;;;;;;8.30;2.50;;;;;;;0.57;53.41;96334.38;108183;1268;50685;-81
2022/02/20 03:48:00;;;;;;;3.30;0.90;;;;;;;0.77;53.15;96335.88;106840;1267;1767838;-81
2022/02/20 03:50:31;;;;;;;4.50;2.00;;;;;;;0.93;52.42;96319.85;108156;1268;33473;-81
2022/02/20 03:53:02;;;;;;;3.90;1.60;;;;;;;0.97;52.27;96329.91;108175;1268;31942;-81
2022/02/20 03:55:34;;;;;;;4.40;1.80;;;;;;;1.07;51.68;96316.31;108142;1268;41232;-82
2022/02/20 03:58:05;;;;;;;5.50;2.50;;;;;;;1.19;51.34;96328.36;108123;1268;61728;-81
2022/02/20 04:00:36;;;;;;;6.30;2.00;;;;;;;1.23;51.21;96327.07;108187;1268;33316;-81
2022/02/20 04:03:07;;;;;;;3.30;1.60;;;;;;;1.24;50.87;96323.02;108030;1268;130903;-81
2022/02/20 04:05:38;;;;;;;6.90;1.80;;;;;;;1.26;50.92;96330.38;108019;1267;89826;-82
2022/02/20 04:08:09;;;;;;;2.70;1.30;;;;;;;1.29;50.68;96328.05;108162;1268;42048;-81
2022/02/20 04:10:41;;;;;;;3.30;1.40;;;;;;;1.41;50.21;96331.79;106883;1267;1626595;-81
2022/02/20 04:13:12;;;;;;;4.90;2.00;;;;;;;1.47;50.18;96319.70;108172;1268;39460;-81
2022/02/20 04:15:43;;;;;;;4.50;1.40;;;;;;;1.52;49.85;96317.76;108173;1268;36996;-81
2022/02/20 04:18:14;;;;;;;2.70;1.60;;;;;;;1.55;49.59;96308.23;108023;1268;35489;-81
2022/02/20 04:20:47;;;;;;;4.80;1.80;;;;;;;1.60;49.60;96307.55;108132;1268;89103;-82
2022/02/20 04:23:18;;;;;;;2.30;0.90;;;;;;;1.61;49.23;96293.83;108083;1268;89172;-81
2022/02/20 04:25:50;;;;;;;5.90;1.40;;;;;;;1.66;49.01;96286.75;108006;1268;88240;-81
2022/02/20 04:28:21;;;;;;;3.90;1.60;;;;;;;1.77;48.57;96276.44;108100;1268;96123;-82
2022/02/20 04:30:51;;;;;;;5.20;1.40;;;;;;;1.82;48.34;96273.96;107061;1268;1512197;-81
2022/02/20 04:33:23;;;;;;;2.20;0.80;;;;;;;1.86;48.19;96272.66;106825;1268;1769976;-82
2022/02/20 04:35:54;;;;;;;4.10;1.20;;;;;;;1.89;48.04;96274.96;107993;1268;133443;-81
2022/02/20 04:38:25;;;;;;;3.70;1.20;;;;;;;1.89;48.25;96263.14;107989;1268;120273;-81
2022/02/20 04:40:57;;;;;;;3.10;1.10;;;;;;;1.90;47.72;96252.71;107887;1268;121090;-82
2022/02/20 04:43:28;;;;;;;3.80;1.10;;;;;;;1.96;47.49;96246.19;107825;1270;119264;-81
2022/02/20 04:45:59;;;;;;;4.50;0.90;;;;;;;2.06;46.93;96234.23;107892;1268;170670;-81
2022/02/20 04:48:31;;;;;;;1.40;0.80;;;;;;;2.15;46.80;96240.94;107944;1265;151844;-81
2022/02/20 04:51:02;;;;;;;1.90;0.90;;;;;;;2.20;46.39;96233.66;107879;1268;172865;-80
2022/02/20 04:53:33;;;;;;;6.00;1.00;;;;;;;2.27;46.37;96227.48;108107;1268;61744;-80
2022/02/20 04:56:04;;;;;;;3.10;1.00;;;;;;;2.30;46.24;96220.98;108057;1265;103789;-81
2022/02/20 04:58:35;;;;;;;2.20;1.00;;;;;;;2.34;46.20;96229.77;108024;1268;108753;-80
2022/02/20 05:01:06;;;;;;;1.80;0.80;;;;;;;2.36;46.07;96227.87;108086;1268;101068;-80
2022/02/20 05:03:38;;;;;;;1.50;0.80;;;;;;;2.38;45.95;96231.00;107839;1268;143251;-81
2022/02/20 05:06:09;;;;;;;7.00;1.40;;;;;;;2.37;45.99;96226.54;107942;1268;70086;-81
2022/02/20 05:08:40;;;;;;;3.80;0.80;;;;;;;2.35;46.27;96231.52;106220;1267;2402548;-81
2022/02/20 05:11:11;;;;;;;1.30;0.80;;;;;;;2.35;46.13;96225.30;107982;1268;103107;-81
2022/02/20 05:13:43;;;;;;;4.00;1.20;;;;;;;2.41;45.79;96226.45;108203;1268;41573;-81
2022/02/20 05:16:14;;;;;;;2.00;0.90;;;;;;;2.44;45.77;96213.73;108008;1268;110043;-81
2022/02/20 05:18:45;;;;;;;2.90;0.90;;;;;;;2.51;45.27;96221.18;107847;1268;135935;-81
2022/02/20 05:21:16;;;;;;;3.30;1.10;;;;;;;2.53;45.69;96218.16;107872;1268;132135;-80
2022/02/20 05:23:47;;;;;;;5.10;1.40;;;;;;;2.50;45.62;96204.82;107739;1267;105781;-80
2022/02/20 05:26:19;;;;;;;2.40;0.90;;;;;;;2.53;45.31;96190.45;107746;1268;127212;-80
2022/02/20 05:28:50;;;;;;;2.20;1.10;;;;;;;2.60;45.17;96187.73;107821;1268;116186;-80
2022/02/20 05:31:22;;;;;;;1.90;1.10;;;;;;;2.63;45.22;96197.14;107740;1268;95881;-81
2022/02/20 05:33:53;;;;;;;1.80;0.80;;;;;;;2.64;45.10;96198.92;107814;1268;110470;-81
2022/02/20 05:36:25;;;;;;;4.70;1.60;;;;;;;2.63;45.04;96205.84;107612;1268;207100;-82
2022/02/20 05:38:56;;;;;;;3.30;1.40;;;;;;;2.58;45.32;96199.64;107743;1268;116128;-81
2022/02/20 05:41:27;;;;;;;4.20;1.40;;;;;;;2.55;45.40;96197.08;107696;1268;139294;-81
2022/02/20 05:43:58;;;;;;;4.50;1.30;;;;;;;2.55;45.21;96187.61;107968;1268;132071;-81
2022/02/20 05:46:29;;;;;;;3.90;1.50;;;;;;;2.54;45.36;96178.61;107880;1268;119048;-81
2022/02/20 05:49:04;;;;;;;3.10;1.10;;;;;;;2.53;45.36;96166.59;108025;1268;30760;-81
2022/02/20 05:51:35;;;;;;;3.50;2.00;;;;;;;2.48;45.67;96167.23;107907;1270;37676;-81
2022/02/20 05:54:06;;;;;;;5.90;2.10;;;;;;;2.34;45.98;96159.69;108044;1268;80255;-81
2022/02/20 05:56:38;;;;;;;4.70;1.80;;;;;;;2.21;46.27;96142.27;108098;1268;36693;-82
2022/02/20 05:59:09;;;;;;;7.90;2.00;;;;;;;2.12;46.43;96144.20;108087;1268;108464;-81
2022/02/20 06:01:40;;;;;;;4.30;2.20;;;;;;;2.04;46.76;96146.89;107868;1268;119091;-81
2022/02/20 06:04:11;;;;;;;3.10;1.70;;;;;;;1.96;47.02;96147.95;108073;1268;134078;-82
2022/02/20 06:06:42;;;;;;;5.50;1.40;;;;;;;1.91;47.29;96135.38;108062;1268;79007;-81
2022/02/20 06:09:13;;;;;;;6.10;2.20;;;;;;;1.95;47.05;96125.77;108204;1268;29206;-81
2022/02/20 06:11:44;;;;;;;8.70;2.50;;;;;;;2.01;47.19;96131.21;108078;1268;86410;-82
2022/02/20 06:14:16;;;;;;;3.30;1.70;;;;;;;2.00;47.23;96135.52;108203;1267;35917;-81
2022/02/20 06:16:47;;;;;;;5.00;1.90;;;;;;;2.02;47.19;96124.48;107925;1268;30577;-80
2022/02/20 06:19:18;;;;;;;2.40;1.50;;;;;;;2.06;47.21;96126.48;107729;1268;53876;-81
2022/02/20 06:21:49;;;;;;;3.60;1.40;;;;;;;2.09;47.24;96133.20;107986;1268;158941;-81
2022/02/20 06:24:20;;;;;;;3.40;1.30;;;;;;;2.14;46.89;96120.44;107962;1268;109380;-81
2022/02/20 06:26:52;;;;;;;1.10;0.90;;;;;;;2.29;46.53;96109.02;107772;1267;126905;-81
2022/02/20 06:29:23;;;;;;;9.90;1.80;;;;;;;2.51;46.44;96106.83;108191;1268;37799;-81
2022/02/20 06:31:54;;;;;;;5.00;1.80;;;;;;;2.51;46.29;96101.81;108135;1268;83551;-81
2022/02/20 06:34:25;;;;;;;3.60;1.30;;;;;;;2.49;46.43;96081.95;107825;1268;135100;-81
2022/02/20 06:36:56;;;;;;;6.20;1.80;;;;;;;2.44;46.51;96075.45;108239;1268;37095;-81
2022/02/20 06:39:28;;;;;;;4.20;1.60;;;;;;;2.42;46.78;96067.84;107374;1268;1088070;-82
2022/02/20 06:41:59;;;;;;;4.00;1.70;;;;;;;2.47;47.04;96071.98;108244;1268;44214;-82
2022/02/20 06:44:31;;;;;;;5.10;2.30;;;;;;;2.47;47.01;96068.65;107995;1268;183903;-81
2022/02/20 06:47:02;;;;;;;6.90;2.30;;;;;;;2.46;47.36;96058.98;108148;1268;136046;-81
2022/02/20 06:49:33;;;;;;;7.20;2.10;;;;;;;2.49;47.71;96050.73;108145;1268;130003;-82
2022/02/20 06:52:06;;;;;;;3.40;1.80;;;;;;;2.64;47.85;96059.35;108214;1267;36160;-81
2022/02/20 06:54:38;;;;;;;5.30;1.80;;;;;;;2.78;47.77;96050.73;107962;1268;148609;-81
2022/02/20 06:57:10;;;;;;;4.50;1.60;;;;;;;2.92;47.98;96046.42;107926;1267;147987;-81
2022/02/20 06:59:41;;;;;;;3.60;1.50;;;;;;;3.13;47.58;96059.66;108209;1268;35028;-81
2022/02/20 07:02:12;;;;;;;4.10;2.00;;;;;;;3.24;47.72;96048.47;108230;1268;35488;-81
2022/02/20 07:04:43;;;;;;;6.30;2.10;;;;;;;3.34;47.69;96051.36;108161;1268;37024;-81
2022/02/20 07:07:15;;;;;;;3.30;1.40;;;;;;;3.41;48.05;96050.44;108022;1266;127978;-81
2022/02/20 07:09:46;;;;;;;2.20;1.00;;;;;;;3.67;48.66;96036.45;108063;1268;134807;-81
2022/02/20 07:12:18;;;;;;;5.60;1.60;;;;;;;3.94;48.64;96050.31;107957;1266;116317;-81
2022/02/20 07:14:49;;;;;;;3.80;1.60;;;;;;;4.17;48.42;96040.11;107945;1268;140356;-81
2022/02/20 07:17:22;;;;;;;3.60;1.60;;;;;;;4.83;47.98;96029.91;106650;1268;2105776;-82
2022/02/20 07:19:53;;;;;;;5.30;2.50;;;;;;;5.53;46.46;96023.31;108133;1268;40707;-81
2022/02/20 07:22:25;;;;;;;5.10;1.60;;;;;;;5.98;46.18;96021.09;108022;1267;68993;-82
2022/02/20 07:24:56;;;;;;;6.10;2.20;;;;;;;6.33;45.62;96029.39;108079;1267;118241;-82
2022/02/20 07:27:27;;;;;;;3.80;1.80;;;;;;;6.58;45.39;96036.05;108050;1268;105700;-80
2022/02/20 07:29:58;;;;;;;8.60;1.90;;;;;;;6.61;45.54;96014.70;108146;1268;45821;-81
2022/02/20 07:32:29;;;;;;;5.30;1.90;;;;;;;6.52;46.46;96043.23;108010;1268;160749;-81
2022/02/20 07:35:00;;;;;;;6.00;2.00;;;;;;;6.50;47.13;96029.11;106871;1268;1554850;-82
2022/02/20 07:37:32;;;;;;;4.80;1.40;;;;;;;6.20;48.11;96032.98;106537;1268;1895813;-81
2022/02/20 07:40:04;;;;;;;5.50;1.20;;;;;;;5.89;49.30;96068.48;107892;1268;150794;-81
2022/02/20 07:42:38;;;;;;;3.50;1.60;;;;;;;5.57;50.57;96018.02;108084;1268;81590;-81
2022/02/20 07:45:10;;;;;;;4.80;1.80;;;;;;;5.12;52.26;96042.38;108155;1268;35439;-81
2022/02/20 07:47:52;;;;;;;5.70;1.90;;;;;;;4.73;53.99;96052.45;108050;1268;112972;-81
2022/02/20 07:50:25;;;;;;;3.60;1.10;;;;;;;4.33;56.16;96040.13;108011;1268;97279;-81
2022/02/20 07:52:57;;;;;;;2.60;1.10;;;;;;;4.06;57.53;96073.77;106543;1267;2020040;-80
2022/02/20 07:55:28;;;;;;;2.30;1.40;;;;;;;3.90;58.85;96059.20;108088;1268;35966;-81
2022/02/20 07:58:02;;;;;;;5.10;1.60;;;;;;;3.91;59.61;96072.05;108164;1267;40643;-82
2022/02/20 08:00:33;;;;;;;1.90;1.00;;;;;;;3.80;60.64;96060.63;105695;1268;2053348;-81
2022/02/20 08:03:06;;;;;;;1.90;1.10;;;;;;;3.57;62.36;96084.98;108075;1268;72363;-81
2022/02/20 08:05:37;;;;;;;4.50;1.50;;;;;;;3.38;63.22;96091.54;108019;1268;143784;-81
2022/02/20 08:08:09;;;;;;;3.20;1.10;;;;;;;3.26;64.15;96081.62;108146;1268;35810;-80
2022/02/20 08:10:40;;;;;;;2.70;1.10;;;;;;;3.20;65.15;96087.08;108186;1267;31477;-80
2022/02/20 08:13:12;;;;;;;1.60;1.00;;;;;;;3.19;65.59;96089.48;108132;1268;141008;-80
2022/02/20 08:15:43;;;;;;;1.90;1.30;;;;;;;3.14;66.03;96086.49;108220;1267;97796;-81
2022/02/20 08:18:14;;;;;;;17.70;1.10;;;;;;;3.07;67.17;96057.19;108163;1267;103883;-81
2022/02/20 08:20:45;;;;;;;2.60;1.10;;;;;;;3.03;67.58;96092.52;108066;1268;72004;-82
2022/02/20 08:23:20;;;;;;;3.10;1.40;;;;;;;3.03;68.44;96093.21;108085;1268;134158;-81
2022/02/20 08:25:51;;;;;;;3.00;1.00;;;;;;;2.96;68.75;96093.45;107076;1268;1311149;-80
2022/02/20 08:28:23;;;;;;;8.10;1.30;;;;;;;2.89;69.13;96081.36;106083;1268;2658145;-81
2022/02/20 08:30:54;;;;;;;1.00;0.90;;;;;;;2.78;70.06;96094.45;108084;1268;115397;-80
2022/02/20 08:33:27;;;;;;;1.20;0.80;;;;;;;2.62;71.09;96107.84;108023;1268;44174;-80
2022/02/20 08:35:58;;;;;;;2.00;1.30;;;;;;;2.45;72.25;96102.77;108118;1268;54736;-81
2022/02/20 08:38:30;;;;;;;3.70;1.20;;;;;;;2.30;73.28;96103.13;108200;1268;69649;-80
2022/02/20 08:41:02;;;;;;;0.80;0.80;;;;;;;2.19;74.01;96128.79;107943;1267;113828;-81
2022/02/20 08:43:34;;;;;;;3.00;1.10;;;;;;;2.16;75.06;96116.92;108096;1268;44994;-81
2022/02/20 08:46:05;;;;;;;1.70;0.80;;;;;;;2.09;75.69;96117.52;108112;1268;88946;-82
2022/02/20 08:48:37;;;;;;;1.40;1.00;;;;;;;2.10;76.40;96119.80;108018;1268;169244;-81
2022/02/20 08:51:09;;;;;;;2.10;1.50;;;;;;;2.12;76.85;96123.81;108066;1268;84483;-81
2022/02/20 08:53:40;;;;;;;1.20;0.90;;;;;;;2.09;77.19;96126.63;108163;1268;33905;-81
2022/02/20 08:56:12;;;;;;;1.20;0.90;;;;;;;2.04;78.05;96129.73;107986;1268;107828;-82
2022/02/20 08:58:44;;;;;;;1.10;0.70;;;;;;;1.99;78.27;96130.14;108013;1268;143635;-82
2022/02/20 09:01:19;;;;;;;3.10;1.40;;;;;;;1.96;78.73;96130.95;108170;1268;42941;-82
2022/02/20 09:03:50;;;;;;;1.10;0.90;;;;;;;1.91;79.01;96123.39;108182;1268;97264;-81
2022/02/20 09:06:22;;;;;;;1.20;0.80;;;;;;;1.91;79.67;96125.54;108078;1268;117304;-81
2022/02/20 09:08:54;;;;;;;2.30;1.10;;;;;;;1.95;80.31;96123.25;108115;1267;130125;-82
2022/02/20 09:11:25;;;;;;;1.60;1.20;;;;;;;2.01;80.68;96109.04;108103;1268;95274;-82
2022/02/20 09:13:57;;;;;;;2.70;1.30;;;;;;;2.05;80.72;96115.39;108059;1270;59766;-82
2022/02/20 09:16:28;;;;;;;1.90;1.10;;;;;;;2.16;80.64;96122.40;107972;1268;221638;-81
2022/02/20 09:19:03;;;;;;;2.20;1.40;;;;;;;2.20;80.60;96118.34;108059;1268;146670;-82
2022/02/20 09:21:35;;;;;;;1.40;1.20;;;;;;;2.22;80.68;96119.94;107978;1268;94369;-81
2022/02/20 09:24:07;;;;;;;2.90;1.70;;;;;;;2.26;80.52;96127.92;108102;1268;38668;-82
2022/02/20 09:26:39;;;;;;;3.20;1.60;;;;;;;2.28;80.28;96125.85;107848;1268;145793;-82
2022/02/20 09:29:11;;;;;;;2.50;1.30;;;;;;;2.31;80.40;96122.87;108053;1268;112526;-82
2022/02/20 09:31:43;;;;;;;2.10;1.10;;;;;;;2.26;80.40;96128.27;108112;1267;97595;-81
2022/02/20 09:34:15;;;;;;;2.20;1.50;;;;;;;2.19;80.97;96135.38;106646;1268;1959269;-82
2022/02/20 09:36:47;;;;;;;1.40;1.10;;;;;;;2.12;80.94;96134.84;108103;1268;114555;-83
2022/02/20 09:39:21;;;;;;;1.70;0.90;;;;;;;2.04;81.23;96141.36;108158;1268;33022;-81
2022/02/20 09:41:52;;;;;;;3.20;1.50;;;;;;;1.94;81.90;96135.63;106997;1268;1402344;-81
2022/02/20 09:44:24;;;;;;;2.20;1.10;;;;;;;1.86;82.09;96134.98;107989;1267;148770;-81
2022/02/20 09:46:56;;;;;;;2.00;1.20;;;;;;;1.85;82.82;96136.16;107799;1268;228375;-81
2022/02/20 09:49:31;;;;;;;2.20;1.20;;;;;;;1.87;83.09;96135.20;108148;1268;47229;-82
2022/02/20 09:52:03;;;;;;;2.10;1.50;;;;;;;1.94;83.42;96131.08;108112;1268;75875;-81
2022/02/20 09:54:35;;;;;;;1.50;1.20;;;;;;;2.03;83.62;96135.47;106262;1268;2505622;-82
2022/02/20 09:57:07;;;;;;;1.40;0.80;;;;;;;2.13;83.77;96132.35;105888;1267;1528046;-82
2022/02/20 09:59:39;;;;;;;2.00;1.40;;;;;;;2.20;83.92;96126.70;107184;1268;1268138;-82
2022/02/20 10:02:13;;;;;;;1.30;0.90;;;;;;;2.19;84.03;96129.56;106792;1268;1792958;-82
2022/02/20 10:04:47;;;;;;;3.70;1.50;;;;;;;2.14;83.80;96136.33;108113;1268;119088;-82
2022/02/20 10:07:39;;;;;;;3.00;1.70;;;;;;;2.07;83.86;96130.83;107191;1268;1323021;-81
2022/02/20 10:10:16;;;;;;;1.10;1.00;;;;;;;2.07;84.01;96136.27;108042;1268;66999;-82
2022/02/20 10:12:57;;;;;;;2.60;1.50;;;;;;;2.07;84.44;96140.65;108108;1267;69927;-81
2022/02/20 10:15:31;;;;;;;2.00;1.20;;;;;;;2.03;84.29;96137.98;108151;1268;33548;-82
2022/02/20 10:18:12;;;;;;;2.70;1.10;;;;;;;1.96;84.58;96135.39;106895;1268;1650027;-82
2022/02/20 10:20:44;;;;;;;2.20;1.30;;;;;;;1.91;84.85;96143.35;106988;1268;1552786;-82
2022/02/20 10:23:17;;;;;;;1.90;1.20;;;;;;;1.88;84.90;96146.34;106869;1268;1771173;-82
2022/02/20 10:25:51;;;;;;;2.30;1.40;;;;;;;1.88;85.40;96147.44;108182;1268;34021;-82
2022/02/20 10:28:22;;;;;;;2.50;1.00;;;;;;;1.88;85.63;96150.10;107941;1267;194677;-82
2022/02/20 10:30:54;;;;;;;5.00;1.60;;;;;;;1.85;85.73;96153.30;107774;1268;166339;-82
2022/02/20 10:33:26;;;;;;;2.50;1.10;;;;;;;1.85;85.87;96150.05;106334;1268;2495005;-81
2022/02/20 10:35:58;;;;;;;2.10;1.60;;;;;;;1.87;86.13;96156.95;108148;1267;38962;-82
2022/02/20 10:38:36;;;;;;;2.50;1.30;;;;;;;1.93;86.03;96160.13;108176;1268;37721;-82
2022/02/20 10:41:08;;;;;;;2.30;1.40;;;;;;;1.97;86.22;96160.05;106664;1268;1792254;-81
2022/02/20 10:43:41;;;;;;;3.60;1.80;;;;;;;2.00;86.53;96163.09;107889;1268;205816;-82
2022/02/20 10:46:13;;;;;;;5.00;2.50;;;;;;;2.05;86.68;96163.27;108073;1268;147040;-81
2022/02/20 10:48:49;;;;;;;2.30;1.80;;;;;;;2.09;86.61;96162.96;108176;1268;36698;-82
2022/02/20 10:51:21;;;;;;;1.30;1.10;;;;;;;2.13;86.70;96165.88;108107;1267;36595;-81
2022/02/20 10:53:54;;;;;;;1.70;1.20;;;;;;;2.14;86.79;96168.88;108129;1268;35795;-82
2022/02/20 10:59:24;;;;;;;1.40;1.00;;;;;;;2.08;86.90;96157.98;104269;1302;545080;-82
2022/02/20 11:02:13;;;;;;;1.90;1.00;;;;;;;2.03;87.03;96165.17;106600;1282;107271;-82
2022/02/20 11:04:50;;;;;;;2.10;0.90;;;;;;;2.01;87.09;96169.27;107877;1271;34299;-82
2022/02/20 11:07:23;;;;;;;3.80;2.30;;;;;;;1.99;87.44;96164.45;107703;1272;152226;-82
2022/02/20 11:09:57;;;;;;;1.70;1.30;;;;;;;1.98;87.43;96169.63;107537;1271;180181;-82
2022/02/20 11:12:29;;;;;;;2.40;1.60;;;;;;;1.98;87.52;96166.15;107634;1270;221914;-81
2022/02/20 11:15:04;;;;;;;2.60;1.40;;;;;;;2.05;87.52;96161.44;106088;1270;2005108;-82
2022/02/20 11:17:38;;;;;;;1.10;1.00;;;;;;;2.10;87.40;96167.52;108039;1269;35506;-82
2022/02/20 11:20:11;;;;;;;2.40;1.10;;;;;;;2.14;87.55;96170.87;107952;1269;37409;-82
2022/02/20 11:22:47;;;;;;;1.90;1.30;;;;;;;2.19;87.22;96170.20;108070;1268;29513;-82
2022/02/20 11:25:21;;;;;;;2.70;1.60;;;;;;;2.24;87.23;96164.27;107983;1268;33770;-81
2022/02/20 11:27:58;;;;;;;1.30;1.10;;;;;;;2.28;87.19;96164.61;106519;1269;1999075;-82
2022/02/20 11:30:29;;;;;;;3.00;1.90;;;;;;;2.30;86.95;96166.58;107011;1269;1287923;-82
2022/02/20 11:33:04;;;;;;;3.50;2.00;;;;;;;2.32;86.89;96160.59;107980;1270;50993;-82
2022/02/20 11:35:39;;;;;;;3.20;2.20;;;;;;;2.35;86.60;96159.23;107873;1270;66551;-82
2022/02/20 11:38:14;;;;;;;3.30;2.00;;;;;;;2.38;86.66;96158.08;107952;1269;109447;-82
2022/02/20 11:40:59;;;;;;;3.10;1.80;;;;;;;2.44;86.41;96155.65;108001;1269;32463;-82
2022/02/20 11:43:50;;;;;;;3.00;1.90;;;;;;;2.54;86.38;96155.03;107722;1269;202666;-82
2022/02/20 11:46:22;;;;;;;;;;;;;;;2.60;86.17;96164.03;107802;1268;212980;-82
2022/02/20 11:49:27;;;;;;;3.70;1.90;;;;;;;2.61;86.12;96163.51;106615;1270;1802259;-81
2022/02/20 11:52:05;;;;;;;4.10;1.80;;;;;;;2.59;85.76;96163.43;107830;1269;147558;-82